Time;durP1;ratioP1;P1;durP2;ratioP2;P2;SDS_P1;SDS_P2;PMS_P1;PMS_P2;Temp;Humidity;BMP_temperature;BMP_pressure;BME280_temperature;BME280_humidity;BME280_pressure;Samples;Min_cycle;Max_cycle;Signal;HPM_P1;HPM_P2
2022/05/06 00:01:10;;;;;;;;;;;;;;;-143.90;100.00;55069.53;2087651;28;19921;-64
2022/05/06 00:02:30;;;;;;;;;;;;;;;-143.90;100.00;55075.47;2088522;28;19926;-64
2022/05/06 00:03:51;;;;;;;;;;;;;;;-143.90;100.00;55067.53;2083061;28;19921;-64
2022/05/06 00:05:12;;;;;;;;;;;;;;;-143.90;100.00;55083.41;2085898;28;19935;-64
2022/05/06 00:06:33;;;;;;;;;;;;;;;-143.90;100.00;55063.56;2080536;28;19925;-64
2022/05/06 00:07:53;;;;;;;;;;;;;;;-143.90;100.00;55079.44;2084525;28;19925;-64
2022/05/06 00:09:14;;;;;;;;;;;;;;;-143.90;100.00;55091.38;2089570;28;19966;-64
2022/05/06 00:10:35;;;;;;;;;;;;;;;-143.90;100.00;55115.19;2080282;28;20369;-64
2022/05/06 00:11:55;;;;;;;;;;;;;;;-143.90;100.00;55085.41;2084280;28;19951;-64
2022/05/06 00:13:16;;;;;;;;;;;;;;;-143.90;100.00;55079.44;2086698;28;19927;-64
2022/05/06 00:14:36;;;;;;;;;;;;;;;-143.90;100.00;55095.34;2087159;28;20368;-64
2022/05/06 00:15:57;;;;;;;;;;;;;;;-143.90;100.00;55139.03;2088686;28;20463;-64
2022/05/06 00:17:18;;;;;;;;;;;;;;;-143.90;100.00;55075.47;2089790;28;19921;-64
2022/05/06 00:18:39;;;;;;;;;;;;;;;-143.90;100.00;55063.56;2086992;28;19927;-64
2022/05/06 00:19:59;;;;;;;;;;;;;;;-143.90;100.00;55079.44;2083779;28;20027;-64
2022/05/06 00:21:20;;;;;;;;;;;;;;;-143.90;100.00;55095.34;2085685;28;19944;-64
2022/05/06 00:22:41;;;;;;;;;;;;;;;-143.90;100.00;55095.34;2092485;27;19925;-64
2022/05/06 00:24:02;;;;;;;;;;;;;;;-143.90;100.00;55071.50;2090550;28;19935;-64
2022/05/06 00:25:26;;;;;;;;;;;;;;;-143.90;100.00;55083.41;2088117;28;19924;-64
2022/05/06 00:26:46;;;;;;;;;;;;;;;-143.90;100.00;55097.31;2087285;28;20395;-64
2022/05/06 00:28:08;;;;;;;;;;;;;;;-143.90;100.00;55049.66;2089513;28;19934;-64
2022/05/06 00:29:29;;;;;;;;;;;;;;;-143.90;100.00;55063.56;2087826;28;19924;-64
2022/05/06 00:30:50;;;;;;;;;;;;;;;-143.90;100.00;55103.28;2078132;28;20331;-64
2022/05/06 00:32:10;;;;;;;;;;;;;;;-143.90;100.00;55091.38;2088125;28;19932;-64
2022/05/06 00:33:31;;;;;;;;;;;;;;;-143.90;100.00;55115.19;2080227;28;19928;-64
2022/05/06 00:34:52;;;;;;;;;;;;;;;-143.90;100.00;55107.25;2086032;28;20007;-64
2022/05/06 00:36:14;;;;;;;;;;;;;;;-143.90;100.00;55071.50;2083005;28;20003;-64
2022/05/06 00:37:35;;;;;;;;;;;;;;;-143.90;100.00;55059.59;2080663;28;20004;-64
2022/05/06 00:38:55;;;;;;;;;;;;;;;-143.90;100.00;55095.34;2083353;28;20099;-64
2022/05/06 00:40:16;;;;;;;;;;;;;;;-143.90;100.00;55087.41;2072948;28;20088;-64
2022/05/06 00:41:38;;;;;;;;;;;;;;;-143.90;100.00;55103.28;2079255;28;20070;-64
2022/05/06 00:42:59;;;;;;;;;;;;;;;-143.90;100.00;55095.34;2082760;28;20011;-64
2022/05/06 00:44:20;;;;;;;;;;;;;;;-143.90;100.00;55097.31;2080748;28;20023;-64
2022/05/06 00:45:43;;;;;;;;;;;;;;;-143.90;100.00;55093.34;2071924;28;20345;-64
2022/05/06 00:47:05;;;;;;;;;;;;;;;-143.90;100.00;55051.66;2071329;28;19925;-64
2022/05/06 00:48:26;;;;;;;;;;;;;;;-143.90;100.00;55089.38;2068675;28;19928;-64
2022/05/06 00:49:47;;;;;;;;;;;;;;;-143.90;100.00;55111.22;2078295;28;19920;-64
2022/05/06 00:51:09;;;;;;;;;;;;;;;-143.90;100.00;55119.16;2072656;28;19928;-64
2022/05/06 00:52:29;;;;;;;;;;;;;;;-143.90;100.00;55095.34;2079016;28;19921;-64
2022/05/06 00:53:51;;;;;;;;;;;;;;;-143.90;100.00;55055.63;2079598;28;19960;-64
2022/05/06 00:55:12;;;;;;;;;;;;;;;-143.90;100.00;55107.25;2064111;28;20565;-65
2022/05/06 00:56:33;;;;;;;;;;;;;;;-143.90;100.00;55091.38;2068823;28;20488;-64
2022/05/06 00:57:53;;;;;;;;;;;;;;;-143.90;100.00;55071.50;2064330;28;19944;-65
2022/05/06 00:59:14;;;;;;;;;;;;;;;-143.90;100.00;55095.34;2074728;28;20296;-65
2022/05/06 01:00:35;;;;;;;;;;;;;;;-143.90;100.00;55091.38;2071317;28;20534;-65
2022/05/06 01:01:59;;;;;;;;;;;;;;;-143.90;100.00;55071.50;2077901;28;19925;-65
2022/05/06 01:03:20;;;;;;;;;;;;;;;-143.90;100.00;55049.66;2073997;28;19925;-64
2022/05/06 01:04:41;;;;;;;;;;;;;;;-143.90;100.00;55059.59;2073007;28;19931;-64
2022/05/06 01:06:05;;;;;;;;;;;;;;;-143.90;100.00;55075.47;2073380;28;19921;-64
2022/05/06 01:07:26;;;;;;;;;;;;;;;-143.90;100.00;55043.72;2070957;28;20007;-64
2022/05/06 01:08:47;;;;;;;;;;;;;;;-143.90;100.00;55077.47;2066371;28;19925;-63
2022/05/06 01:10:08;;;;;;;;;;;;;;;-143.90;100.00;55083.41;2076399;28;19921;-64
2022/05/06 01:11:28;;;;;;;;;;;;;;;-143.90;100.00;55111.22;2072806;28;20035;-65
2022/05/06 01:12:50;;;;;;;;;;;;;;;-143.90;100.00;55073.50;2072784;28;19952;-64
2022/05/06 01:14:29;;;;;;;;;;;;;;;-143.90;100.00;55051.66;2077701;28;19971;-64
2022/05/06 01:15:53;;;;;;;;;;;;;;;-143.90;100.00;55059.59;2070129;28;19921;-64
2022/05/06 01:17:18;;;;;;;;;;;;;;;-143.90;100.00;55111.22;2074840;28;20011;-64
2022/05/06 01:18:38;;;;;;;;;;;;;;;-143.90;100.00;55063.56;2081271;28;20451;-65
2022/05/06 01:19:59;;;;;;;;;;;;;;;-143.90;100.00;55095.34;2081669;28;19963;-64
2022/05/06 01:21:22;;;;;;;;;;;;;;;-143.90;100.00;55079.44;2072196;28;19927;-65
2022/05/06 01:22:54;;;;;;;;;;;;;;;-143.90;100.00;55053.63;2070550;28;19983;-64
2022/05/06 01:24:14;;;;;;;;;;;;;;;-143.90;100.00;55087.41;2079275;28;19925;-65
2022/05/06 01:25:35;;;;;;;;;;;;;;;-143.90;100.00;55087.41;2073591;28;19995;-65
2022/05/06 01:26:59;;;;;;;;;;;;;;;-143.90;100.00;55055.63;2075846;28;19932;-64
2022/05/06 01:28:21;;;;;;;;;;;;;;;-143.90;100.00;55055.63;2083203;28;19928;-65
2022/05/06 01:29:41;;;;;;;;;;;;;;;-143.90;100.00;55091.38;2080209;28;19943;-64
2022/05/06 01:31:02;;;;;;;;;;;;;;;-143.90;100.00;55093.34;2072950;28;19921;-64
2022/05/06 01:32:23;;;;;;;;;;;;;;;-143.90;100.00;55073.50;2077812;28;20316;-65
2022/05/06 01:33:44;;;;;;;;;;;;;;;-143.90;100.00;55063.56;2080981;28;19929;-64
2022/05/06 01:35:05;;;;;;;;;;;;;;;-143.90;100.00;55039.75;2065736;28;19992;-65
2022/05/06 01:36:27;;;;;;;;;;;;;;;-143.90;100.00;55091.38;2075770;28;19920;-64
2022/05/06 01:37:48;;;;;;;;;;;;;;;-143.90;100.00;55095.34;2088021;28;19931;-64
2022/05/06 01:39:09;;;;;;;;;;;;;;;-143.90;100.00;55035.78;2081505;28;20654;-64
2022/05/06 01:40:39;;;;;;;;;;;;;;;-143.90;100.00;55125.13;2071211;28;19925;-66
2022/05/06 01:42:06;;;;;;;;;;;;;;;-143.90;100.00;55146.97;2076945;28;20007;-67
2022/05/06 01:44:12;;;;;;;;;;;;;;;-143.90;100.00;55051.66;2080586;28;19921;-65
2022/05/06 01:45:34;;;;;;;;;;;;;;;-143.90;100.00;55071.50;2060581;28;19933;-66
2022/05/06 01:46:56;;;;;;;;;;;;;;;-143.90;100.00;55083.41;2079199;28;20460;-66
2022/05/06 01:48:21;;;;;;;;;;;;;;;-143.90;100.00;55075.47;2078439;28;20015;-66
2022/05/06 01:49:46;;;;;;;;;;;;;;;-143.90;100.00;55079.44;2080412;28;20444;-66
2022/05/06 01:51:13;;;;;;;;;;;;;;;-143.90;100.00;55083.41;2081563;28;19921;-66
2022/05/06 01:52:35;;;;;;;;;;;;;;;-143.90;100.00;55127.09;2082461;28;20038;-66
2022/05/06 01:53:56;;;;;;;;;;;;;;;-143.90;100.00;55091.38;2081552;28;19995;-67
2022/05/06 01:55:17;;;;;;;;;;;;;;;-143.90;100.00;55055.63;2082110;28;19963;-66
2022/05/06 01:56:49;;;;;;;;;;;;;;;-143.90;100.00;55081.44;2079337;28;20424;-66
2022/05/06 01:58:11;;;;;;;;;;;;;;;-143.90;100.00;55073.50;2087284;28;19975;-66
2022/05/06 01:59:37;;;;;;;;;;;;;;;-143.90;100.00;55075.47;2080571;28;19932;-67
2022/05/06 02:01:24;;;;;;;;;;;;;;;-143.90;100.00;55043.72;2089606;28;19921;-66
2022/05/06 02:02:45;;;;;;;;;;;;;;;-143.90;100.00;55079.44;2081363;28;19987;-66
2022/05/06 02:05:49;;;;;;;;;;;;;;;-143.90;100.00;55083.41;2079553;28;19921;-67
2022/05/06 02:07:10;;;;;;;;;;;;;;;-143.90;100.00;55103.28;2081014;28;20451;-66
2022/05/06 02:08:34;;;;;;;;;;;;;;;-143.90;100.00;55107.25;2084982;28;19927;-66
2022/05/06 02:09:54;;;;;;;;;;;;;;;-143.90;100.00;55091.38;2079594;28;20495;-66
2022/05/06 02:11:18;;;;;;;;;;;;;;;-143.90;100.00;55091.38;2080679;28;20439;-66
2022/05/06 02:12:39;;;;;;;;;;;;;;;-143.90;100.00;55059.59;2081278;28;19967;-66
2022/05/06 02:14:23;;;;;;;;;;;;;;;-143.90;100.00;55099.31;2089998;28;20520;-66
2022/05/06 02:16:09;;;;;;;;;;;;;;;-143.90;100.00;55075.47;2089710;28;19925;-66
2022/05/06 02:18:02;;;;;;;;;;;;;;;-143.90;100.00;55049.66;2067370;28;20329;-66
2022/05/06 02:19:46;;;;;;;;;;;;;;;-143.90;100.00;55065.56;2088342;28;19928;-66
2022/05/06 02:21:07;;;;;;;;;;;;;;;-143.90;100.00;55075.47;2087487;28;19921;-66
2022/05/06 02:22:38;;;;;;;;;;;;;;;-143.90;100.00;55085.41;2081895;28;20008;-66
2022/05/06 02:24:15;;;;;;;;;;;;;;;-143.90;100.00;55075.47;2079884;28;19921;-66
2022/05/06 02:25:55;;;;;;;;;;;;;;;-143.90;100.00;55071.50;2087286;28;19921;-66
2022/05/06 02:27:23;;;;;;;;;;;;;;;-143.90;100.00;55079.44;2087160;28;19948;-66
2022/05/06 02:28:47;;;;;;;;;;;;;;;-143.90;100.00;55095.34;2080926;28;20031;-66
2022/05/06 02:33:31;;;;;;;;;;;;;;;-143.90;100.00;55119.16;2081367;28;19952;-66
2022/05/06 02:35:10;;;;;;;;;;;;;;;-143.90;100.00;55099.31;2078075;28;20011;-66
2022/05/06 02:36:31;;;;;;;;;;;;;;;-143.90;100.00;55077.47;2072814;28;20017;-66
2022/05/06 02:37:52;;;;;;;;;;;;;;;-143.90;100.00;55075.47;2073091;28;20484;-66
2022/05/06 02:39:14;;;;;;;;;;;;;;;-143.90;100.00;55107.25;2077375;28;20032;-66
2022/05/06 02:40:35;;;;;;;;;;;;;;;-143.90;100.00;55093.34;2077682;28;19921;-66
2022/05/06 02:41:57;;;;;;;;;;;;;;;-143.90;100.00;55063.56;2075533;28;19963;-66
2022/05/06 02:43:19;;;;;;;;;;;;;;;-143.90;100.00;55095.34;2076888;28;19921;-66
2022/05/06 02:44:43;;;;;;;;;;;;;;;-143.90;100.00;55091.38;2085910;28;19925;-66
2022/05/06 02:46:05;;;;;;;;;;;;;;;-143.90;100.00;55067.53;2082043;28;19924;-67
2022/05/06 02:47:26;;;;;;;;;;;;;;;-143.90;100.00;55087.41;2077673;28;19938;-66
2022/05/06 02:48:47;;;;;;;;;;;;;;;-143.90;100.00;55063.56;2077923;28;19921;-66
2022/05/06 02:50:11;;;;;;;;;;;;;;;-143.90;100.00;55071.50;2077835;28;20633;-67
2022/05/06 02:51:33;;;;;;;;;;;;;;;-143.90;100.00;55089.38;2078752;28;20062;-67
2022/05/06 02:52:55;;;;;;;;;;;;;;;-143.90;100.00;55111.22;2074837;28;20123;-66
2022/05/06 02:54:21;;;;;;;;;;;;;;;-143.90;100.00;55095.34;2080447;28;20063;-66
2022/05/06 02:55:44;;;;;;;;;;;;;;;-143.90;100.00;55067.53;2085026;28;19952;-66
2022/05/06 02:57:06;;;;;;;;;;;;;;;-143.90;100.00;55091.38;2078536;28;19921;-68
2022/05/06 02:58:27;;;;;;;;;;;;;;;-143.90;100.00;55059.59;2080164;28;20063;-66
2022/05/06 02:59:48;;;;;;;;;;;;;;;-143.90;100.00;55121.16;2079289;28;20498;-66
2022/05/06 03:01:12;;;;;;;;;;;;;;;-143.90;100.00;55067.53;2081651;28;20000;-66
2022/05/06 03:02:34;;;;;;;;;;;;;;;-143.90;100.00;55093.34;2086652;28;20594;-67
2022/05/06 03:03:59;;;;;;;;;;;;;;;-143.90;100.00;55111.22;2084077;28;19932;-66
2022/05/06 03:05:19;;;;;;;;;;;;;;;-143.90;100.00;55063.56;2079496;28;20030;-67
2022/05/06 03:06:42;;;;;;;;;;;;;;;-143.90;100.00;55067.53;2086948;28;19927;-66
2022/05/06 03:08:04;;;;;;;;;;;;;;;-143.90;100.00;55063.56;2080042;28;20044;-66
2022/05/06 03:09:26;;;;;;;;;;;;;;;-143.90;100.00;55091.38;2077277;28;22532;-67
2022/05/06 03:10:48;;;;;;;;;;;;;;;-143.90;100.00;55111.22;2078692;28;20474;-66
2022/05/06 03:12:10;;;;;;;;;;;;;;;-143.90;100.00;55099.31;2080457;28;19921;-66
2022/05/06 03:13:39;;;;;;;;;;;;;;;-143.90;100.00;55095.34;2073646;28;20656;-66
2022/05/06 03:15:04;;;;;;;;;;;;;;;-143.90;100.00;55051.66;2082981;28;19925;-67
2022/05/06 03:16:31;;;;;;;;;;;;;;;-143.90;100.00;55083.41;2086715;28;20065;-67
2022/05/06 03:17:52;;;;;;;;;;;;;;;-143.90;100.00;55087.41;2083014;28;19925;-67
2022/05/06 03:19:13;;;;;;;;;;;;;;;-143.90;100.00;55065.56;2084850;28;20343;-66
2022/05/06 03:20:34;;;;;;;;;;;;;;;-143.90;100.00;55043.72;2088751;28;20082;-67
2022/05/06 03:21:55;;;;;;;;;;;;;;;-143.90;100.00;55071.50;2085996;28;19927;-66
2022/05/06 03:23:15;;;;;;;;;;;;;;;-143.90;100.00;55065.56;2087021;28;19924;-66
2022/05/06 03:24:36;;;;;;;;;;;;;;;-143.90;100.00;55099.31;2088416;28;19927;-66
2022/05/06 03:25:57;;;;;;;;;;;;;;;-143.90;100.00;55047.69;2089039;28;20601;-66
2022/05/06 03:28:57;;;;;;;;;;;;;;;-143.90;100.00;55095.34;2088343;28;19924;-66
2022/05/06 03:30:19;;;;;;;;;;;;;;;-143.90;100.00;55133.06;2084177;28;20050;-66
2022/05/06 03:31:40;;;;;;;;;;;;;;;-143.90;100.00;55093.34;2079480;28;19925;-66
2022/05/06 03:33:03;;;;;;;;;;;;;;;-143.90;100.00;55071.50;2079022;28;19921;-66
2022/05/06 03:34:28;;;;;;;;;;;;;;;-143.90;100.00;55101.28;2077226;28;19925;-66
2022/05/06 03:35:48;;;;;;;;;;;;;;;-143.90;100.00;55067.53;2086772;28;19924;-66
2022/05/06 03:37:11;;;;;;;;;;;;;;;-143.90;100.00;55071.50;2088122;28;19920;-66
2022/05/06 03:38:32;;;;;;;;;;;;;;;-143.90;100.00;55071.50;2080688;28;19913;-66
2022/05/06 03:39:53;;;;;;;;;;;;;;;-143.90;100.00;55097.31;2079095;28;19936;-66
2022/05/06 03:41:14;;;;;;;;;;;;;;;-143.90;100.00;55055.63;2077473;28;19921;-67
2022/05/06 03:42:37;;;;;;;;;;;;;;;-143.90;100.00;55107.25;2077455;28;20309;-66
2022/05/06 03:43:58;;;;;;;;;;;;;;;-143.90;100.00;55061.59;2084687;28;20475;-66
2022/05/06 03:45:19;;;;;;;;;;;;;;;-143.90;100.00;55087.41;2080097;28;20524;-67
2022/05/06 03:46:40;;;;;;;;;;;;;;;-143.90;100.00;55063.56;2079143;28;20270;-67
2022/05/06 03:48:01;;;;;;;;;;;;;;;-143.90;100.00;55087.41;2084549;28;20011;-67
2022/05/06 03:49:28;;;;;;;;;;;;;;;-143.90;100.00;55115.19;2079379;28;19928;-66
2022/05/06 03:52:34;;;;;;;;;;;;;;;-143.90;100.00;55023.84;2080680;28;20427;-67
2022/05/06 03:53:55;;;;;;;;;;;;;;;-143.90;100.00;55051.66;2084722;28;19920;-67
2022/05/06 03:55:18;;;;;;;;;;;;;;;-143.90;100.00;55071.50;2081998;28;20007;-66
2022/05/06 03:56:41;;;;;;;;;;;;;;;-143.90;100.00;55075.47;2085434;28;19932;-66
2022/05/06 03:58:04;;;;;;;;;;;;;;;-143.90;100.00;55075.47;2078124;28;19968;-66
2022/05/06 03:59:25;;;;;;;;;;;;;;;-143.90;100.00;55091.38;2086125;28;19931;-66
2022/05/06 04:00:54;;;;;;;;;;;;;;;-143.90;100.00;55089.38;2080719;28;19928;-66
2022/05/06 04:02:15;;;;;;;;;;;;;;;-143.90;100.00;55083.41;2079841;28;20008;-66
2022/05/06 04:03:36;;;;;;;;;;;;;;;-143.90;100.00;55093.34;2081794;28;19921;-67
2022/05/06 04:04:58;;;;;;;;;;;;;;;-143.90;100.00;55075.47;2079819;28;20777;-66
2022/05/06 04:06:19;;;;;;;;;;;;;;;-143.90;100.00;55069.53;2078355;28;19920;-66
2022/05/06 04:07:47;;;;;;;;;;;;;;;-143.90;100.00;55079.44;2073792;28;19921;-66
2022/05/06 04:09:08;;;;;;;;;;;;;;;-143.90;100.00;55111.22;2079497;28;19920;-66
2022/05/06 04:10:32;;;;;;;;;;;;;;;-143.90;100.00;55087.41;2078759;28;19920;-66
2022/05/06 04:11:53;;;;;;;;;;;;;;;-143.90;100.00;55079.44;2075123;28;19972;-66
2022/05/06 04:13:16;;;;;;;;;;;;;;;-143.90;100.00;55119.16;2077674;28;19960;-66
2022/05/06 04:14:37;;;;;;;;;;;;;;;-143.90;100.00;55093.34;2077720;28;19928;-66
2022/05/06 04:15:58;;;;;;;;;;;;;;;-143.90;100.00;55117.19;2088680;28;19947;-66
2022/05/06 04:17:20;;;;;;;;;;;;;;;-143.90;100.00;55063.56;2087751;28;19924;-66
2022/05/06 04:18:41;;;;;;;;;;;;;;;-143.90;100.00;55083.41;2083545;28;20021;-66
2022/05/06 04:23:31;;;;;;;;;;;;;;;-143.90;100.00;55115.19;2079689;28;19928;-66
2022/05/06 04:24:55;;;;;;;;;;;;;;;-143.90;100.00;55095.34;2087300;28;20073;-66
2022/05/06 04:26:19;;;;;;;;;;;;;;;-143.90;100.00;55101.28;2079558;28;20408;-66
2022/05/06 04:27:47;;;;;;;;;;;;;;;-143.90;100.00;55091.38;2087081;28;20682;-67
2022/05/06 04:29:07;;;;;;;;;;;;;;;-143.90;100.00;55075.47;2088195;28;19963;-66
2022/05/06 04:30:29;;;;;;;;;;;;;;;-143.90;100.00;55075.47;2089029;28;19921;-66
2022/05/06 04:32:04;;;;;;;;;;;;;;;-143.90;100.00;55057.59;2079725;28;19917;-66
2022/05/06 04:33:25;;;;;;;;;;;;;;;-143.90;100.00;55071.50;2079997;28;19921;-67
2022/05/06 04:34:48;;;;;;;;;;;;;;;-143.90;100.00;55061.59;2078180;28;20381;-66
2022/05/06 04:36:10;;;;;;;;;;;;;;;-143.90;100.00;55059.59;2079502;28;20419;-67
2022/05/06 04:37:32;;;;;;;;;;;;;;;-143.90;100.00;55091.38;2078674;28;19948;-66
2022/05/06 04:38:53;;;;;;;;;;;;;;;-143.90;100.00;55101.28;2079320;28;19921;-66
2022/05/06 04:40:14;;;;;;;;;;;;;;;-143.90;100.00;55057.59;2079311;28;19960;-66
2022/05/06 04:41:35;;;;;;;;;;;;;;;-143.90;100.00;55075.47;2069522;28;20672;-66
2022/05/06 04:42:56;;;;;;;;;;;;;;;-143.90;100.00;55095.34;2072772;28;20487;-66
2022/05/06 04:44:19;;;;;;;;;;;;;;;-143.90;100.00;55051.66;2079886;28;20456;-66
2022/05/06 04:45:41;;;;;;;;;;;;;;;-143.90;100.00;55079.44;2068890;28;20013;-66
2022/05/06 04:47:04;;;;;;;;;;;;;;;-143.90;100.00;55055.63;2081526;28;19932;-66
2022/05/06 04:48:26;;;;;;;;;;;;;;;-143.90;100.00;55091.38;2077601;28;19959;-66
2022/05/06 04:49:48;;;;;;;;;;;;;;;-143.90;100.00;55071.50;2084325;28;20007;-66
2022/05/06 04:51:08;;;;;;;;;;;;;;;-143.90;100.00;55069.53;2080452;28;19932;-66
2022/05/06 04:52:29;;;;;;;;;;;;;;;-143.90;100.00;55085.41;2085267;28;19982;-66
2022/05/06 04:53:54;;;;;;;;;;;;;;;-143.90;100.00;55107.25;2079903;28;19966;-64
2022/05/06 04:55:15;;;;;;;;;;;;;;;-143.90;100.00;55063.56;2084592;28;19921;-64
2022/05/06 04:56:37;;;;;;;;;;;;;;;-143.90;100.00;55111.22;2079609;28;20007;-64
2022/05/06 04:58:07;;;;;;;;;;;;;;;-143.90;100.00;55039.75;2079549;28;19921;-64
2022/05/06 04:59:28;;;;;;;;;;;;;;;-143.90;100.00;55073.50;2075049;28;19979;-65
2022/05/06 05:00:50;;;;;;;;;;;;;;;-143.90;100.00;55061.59;2079949;28;19927;-65
2022/05/06 05:02:11;;;;;;;;;;;;;;;-143.90;100.00;55045.69;2088304;28;20798;-64
2022/05/06 05:03:32;;;;;;;;;;;;;;;-143.90;100.00;55079.44;2079396;28;19939;-65
2022/05/06 05:04:58;;;;;;;;;;;;;;;-143.90;100.00;55083.41;2073943;28;19921;-65
2022/05/06 05:06:21;;;;;;;;;;;;;;;-143.90;100.00;55089.38;2079957;28;19986;-62
2022/05/06 05:07:44;;;;;;;;;;;;;;;-143.90;100.00;55103.28;2077208;28;19924;-64
2022/05/06 05:09:08;;;;;;;;;;;;;;;-143.90;100.00;55127.09;2083696;28;20595;-63
2022/05/06 05:10:29;;;;;;;;;;;;;;;-143.90;100.00;55083.41;2086244;28;19960;-63
2022/05/06 05:11:51;;;;;;;;;;;;;;;-143.90;100.00;55035.78;2074763;28;19968;-63
2022/05/06 05:13:20;;;;;;;;;;;;;;;-143.90;100.00;55087.41;2087364;28;19928;-63
2022/05/06 05:14:42;;;;;;;;;;;;;;;-143.90;100.00;55099.31;2073426;28;19973;-63
2022/05/06 05:16:04;;;;;;;;;;;;;;;-143.90;100.00;55079.44;2077450;28;19925;-64
2022/05/06 05:17:25;;;;;;;;;;;;;;;-143.90;100.00;55047.69;2080469;28;19940;-63
2022/05/06 05:18:48;;;;;;;;;;;;;;;-143.90;100.00;55071.50;2078893;28;19921;-64
2022/05/06 05:20:13;;;;;;;;;;;;;;;-143.90;100.00;55071.50;2080870;28;19928;-64
2022/05/06 05:21:36;;;;;;;;;;;;;;;-143.90;100.00;55059.59;2074751;28;19921;-64
2022/05/06 05:22:58;;;;;;;;;;;;;;;-143.90;100.00;55051.66;2072427;28;19948;-64
2022/05/06 05:24:19;;;;;;;;;;;;;;;-143.90;100.00;55045.69;2076013;28;19916;-66
2022/05/06 05:25:40;;;;;;;;;;;;;;;-143.90;100.00;55073.50;2078008;28;19931;-66
2022/05/06 05:27:01;;;;;;;;;;;;;;;-143.90;100.00;55055.63;2078820;28;19956;-66
2022/05/06 05:28:22;;;;;;;;;;;;;;;-143.90;100.00;55051.66;2082111;28;19948;-67
2022/05/06 05:29:43;;;;;;;;;;;;;;;-143.90;100.00;55027.81;2078481;28;19912;-66
2022/05/06 05:31:05;;;;;;;;;;;;;;;-143.90;100.00;55015.91;2080361;28;20039;-66
2022/05/06 05:32:28;;;;;;;;;;;;;;;-143.90;100.00;55021.88;2081290;28;19921;-66
2022/05/06 05:33:49;;;;;;;;;;;;;;;-143.90;100.00;55051.66;2080105;28;19921;-67
2022/05/06 05:35:10;;;;;;;;;;;;;;;-143.90;100.00;55055.63;2076544;28;19928;-66
2022/05/06 05:36:35;;;;;;;;;;;;;;;-143.90;100.00;55071.50;2079751;28;19921;-67
2022/05/06 05:37:56;;;;;;;;;;;;;;;-143.90;100.00;55027.81;2080184;28;19936;-67
2022/05/06 05:39:17;;;;;;;;;;;;;;;-143.90;100.00;55027.81;2081539;28;19967;-67
2022/05/06 05:40:39;;;;;;;;;;;;;;;-143.90;100.00;55055.63;2079645;28;19928;-67
2022/05/06 05:42:04;;;;;;;;;;;;;;;-143.90;100.00;55035.78;2079949;28;20019;-67
2022/05/06 05:48:29;;;;;;;;;;;;;;;-143.90;100.00;55007.97;2079754;28;19936;-65
2022/05/06 05:49:56;;;;;;;;;;;;;;;-143.90;100.00;55007.97;2080762;28;19931;-64
2022/05/06 05:51:18;;;;;;;;;;;;;;;-143.90;100.00;55043.72;2078938;28;19931;-65
2022/05/06 05:52:45;;;;;;;;;;;;;;;-143.90;100.00;55027.81;2073679;28;19925;-62
2022/05/06 05:54:06;;;;;;;;;;;;;;;-143.90;100.00;55017.91;2079901;28;19917;-63
2022/05/06 05:55:29;;;;;;;;;;;;;;;-143.90;100.00;55004.00;2079167;28;19925;-63
2022/05/06 05:56:52;;;;;;;;;;;;;;;-143.90;100.00;55021.88;2080104;28;20836;-63
2022/05/06 05:58:13;;;;;;;;;;;;;;;-143.90;100.00;54988.13;2077982;28;19921;-63
2022/05/06 05:59:35;;;;;;;;;;;;;;;-143.90;100.00;55039.75;2078776;28;19929;-63
2022/05/06 06:00:57;;;;;;;;;;;;;;;-143.90;100.00;54984.16;2081924;28;20337;-63
2022/05/06 06:02:23;;;;;;;;;;;;;;;-143.90;100.00;55011.94;2081170;28;20393;-63
2022/05/06 06:03:47;;;;;;;;;;;;;;;-143.90;100.00;55017.91;2076934;28;19928;-63
2022/05/06 06:05:09;;;;;;;;;;;;;;;-143.90;95.10;54998.03;2079220;28;19921;-63
2022/05/06 06:06:30;;;;;;;;;;;;;;;-143.90;95.14;55019.88;2077967;28;20846;-63
2022/05/06 06:07:51;;;;;;;;;;;;;;;-143.90;98.05;55035.78;2079494;28;19927;-63
2022/05/06 06:09:14;;;;;;;;;;;;;;;-143.90;97.99;55015.91;2078224;28;19929;-63
2022/05/06 06:10:36;;;;;;;;;;;;;;;-143.90;96.88;55015.91;2081778;28;19928;-64
2022/05/06 06:12:01;;;;;;;;;;;;;;;-143.90;96.12;54994.06;2085738;28;19931;-63
2022/05/06 06:13:22;;;;;;;;;;;;;;;-143.90;96.36;55039.75;2083266;28;20273;-61
2022/05/06 06:14:43;;;;;;;;;;;;;;;-143.90;93.12;55004.00;2074186;28;19992;-63
2022/05/06 06:16:04;;;;;;;;;;;;;;;-143.90;91.11;55041.72;2080998;28;20424;-63
2022/05/06 06:17:25;;;;;;;;;;;;;;;-143.90;94.32;55007.97;2077597;28;20002;-64
2022/05/06 06:18:47;;;;;;;;;;;;;;;-143.90;95.76;54992.09;2083597;28;20394;-63
2022/05/06 06:20:11;;;;;;;;;;;;;;;-143.90;91.25;55015.91;2088690;28;19917;-63
2022/05/06 06:21:36;;;;;;;;;;;;;;;-143.90;87.46;55000.03;2078894;28;19932;-64
2022/05/06 06:22:57;;;;;;;;;;;;;;;-143.90;85.60;54968.25;2087981;28;19923;-63
2022/05/06 06:24:19;;;;;;;;;;;;;;;-143.90;84.64;55035.78;2081090;28;20255;-63
2022/05/06 06:25:40;;;;;;;;;;;;;;;-143.90;84.56;54984.16;2076513;28;19952;-63
2022/05/06 06:27:02;;;;;;;;;;;;;;;-143.90;78.81;54952.38;2084178;28;20741;-63
2022/05/06 06:28:24;;;;;;;;;;;;;;;-143.90;76.95;54966.28;2088420;28;19920;-63
2022/05/06 06:29:47;;;;;;;;;;;;;;;-143.90;76.78;55023.84;2083744;28;19946;-63
2022/05/06 06:31:08;;;;;;;;;;;;;;;-143.90;77.17;54982.16;2082428;28;19924;-63
2022/05/06 06:32:28;;;;;;;;;;;;;;;-143.90;72.87;54968.25;2086355;28;19920;-64
2022/05/06 06:33:49;;;;;;;;;;;;;;;-143.90;73.98;54980.19;2078968;28;20128;-64
2022/05/06 06:35:19;;;;;;;;;;;;;;;-143.90;73.06;54960.31;2079179;28;19988;-64
2022/05/06 06:36:46;;;;;;;;;;;;;;;-143.90;74.28;54996.06;2087140;28;20102;-64
2022/05/06 06:38:07;;;;;;;;;;;;;;;-143.90;69.40;54968.25;2079919;28;19924;-65
2022/05/06 06:39:33;;;;;;;;;;;;;;;-143.90;72.23;55015.91;2078181;28;19972;-66
2022/05/06 06:40:54;;;;;;;;;;;;;;;-143.90;73.71;55007.97;2079578;28;19921;-65
2022/05/06 06:42:15;;;;;;;;;;;;;;;-143.90;73.26;55007.97;2085529;28;19925;-65
2022/05/06 06:43:55;;;;;;;;;;;;;;;-143.90;75.54;55023.84;2087488;28;19974;-65
2022/05/06 06:45:37;;;;;;;;;;;;;;;-143.90;74.38;54980.19;2086871;28;19924;-65
2022/05/06 06:47:17;;;;;;;;;;;;;;;-143.90;68.90;54960.31;2087330;28;20396;-65
2022/05/06 06:49:04;;;;;;;;;;;;;;;-143.90;70.27;54948.41;2089167;28;19923;-66
2022/05/06 06:50:48;;;;;;;;;;;;;;;-143.90;68.07;54948.41;2080163;28;20309;-66
2022/05/06 06:52:17;;;;;;;;;;;;;;;-143.90;68.09;54952.38;2086983;28;20015;-65
2022/05/06 06:53:38;;;;;;;;;;;;;;;-143.90;67.39;54968.25;2088104;28;19920;-66
2022/05/06 06:54:59;;;;;;;;;;;;;;;-143.90;64.64;54968.25;2088588;28;19920;-66
2022/05/06 06:56:21;;;;;;;;;;;;;;;-143.90;65.17;54980.19;2086009;28;20051;-65
2022/05/06 06:57:41;;;;;;;;;;;;;;;-143.90;63.63;54968.25;2087070;28;19942;-65
2022/05/06 06:59:02;;;;;;;;;;;;;;;-143.90;60.71;54964.28;2088021;28;20008;-65
2022/05/06 07:00:23;;;;;;;;;;;;;;;-143.90;58.36;54952.38;2089699;28;20574;-66
2022/05/06 07:01:44;;;;;;;;;;;;;;;-143.90;59.00;54942.44;2088292;28;19924;-66
2022/05/06 07:03:04;;;;;;;;;;;;;;;-143.90;61.18;54944.44;2088121;28;19916;-66
2022/05/06 07:04:25;;;;;;;;;;;;;;;-143.90;63.85;54970.25;2087151;28;19921;-66
2022/05/06 07:12:27;;;;;;;;;;;;;;;-143.90;58.50;54956.34;2088431;28;19921;-65
2022/05/06 07:13:48;;;;;;;;;;;;;;;-143.90;60.80;54960.31;2087551;28;19924;-66
2022/05/06 07:15:09;;;;;;;;;;;;;;;-143.90;59.27;54980.19;2080315;28;20476;-65
2022/05/06 07:16:29;;;;;;;;;;;;;;;-143.90;57.69;54924.59;2086130;28;19927;-65
2022/05/06 07:17:50;;;;;;;;;;;;;;;-143.90;57.41;54942.44;2090534;28;19920;-65
2022/05/06 07:19:11;;;;;;;;;;;;;;;-143.90;54.70;54908.69;2086659;28;19947;-65
2022/05/06 07:20:31;;;;;;;;;;;;;;;-143.90;54.97;54920.59;2088465;28;19921;-65
2022/05/06 07:21:52;;;;;;;;;;;;;;;-143.90;54.07;54914.66;2087545;28;19924;-65